sensor_id;sensor_type;location;lat;lon;timestamp;P1;durP1;ratioP1;P2;durP2;ratioP2
69244;SDS011;56357;52.304;4.870;2022-11-15T00:00:46;14.45;;;8.00;;
69244;SDS011;56357;52.304;4.870;2022-11-15T00:03:14;16.60;;;7.70;;
69244;SDS011;56357;52.304;4.870;2022-11-15T00:05:41;17.30;;;8.35;;
69244;SDS011;56357;52.304;4.870;2022-11-15T00:08:08;14.73;;;7.90;;
69244;SDS011;56357;52.304;4.870;2022-11-15T00:10:35;14.50;;;7.63;;
69244;SDS011;56357;52.304;4.870;2022-11-15T00:13:09;14.00;;;7.65;;
69244;SDS011;56357;52.304;4.870;2022-11-15T00:15:37;16.13;;;7.80;;
69244;SDS011;56357;52.304;4.870;2022-11-15T00:18:05;16.42;;;8.68;;
69244;SDS011;56357;52.304;4.870;2022-11-15T00:20:33;14.27;;;7.75;;
69244;SDS011;56357;52.304;4.870;2022-11-15T00:22:59;15.02;;;7.55;;
69244;SDS011;56357;52.304;4.870;2022-11-15T00:25:26;15.75;;;7.68;;
69244;SDS011;56357;52.304;4.870;2022-11-15T00:27:56;16.80;;;8.57;;
69244;SDS011;56357;52.304;4.870;2022-11-15T00:30:23;18.55;;;8.50;;
69244;SDS011;56357;52.304;4.870;2022-11-15T00:32:50;15.38;;;8.70;;
69244;SDS011;56357;52.304;4.870;2022-11-15T00:35:17;16.08;;;8.13;;
69244;SDS011;56357;52.304;4.870;2022-11-15T00:37:44;15.57;;;7.80;;
69244;SDS011;56357;52.304;4.870;2022-11-15T00:40:12;14.27;;;7.73;;
69244;SDS011;56357;52.304;4.870;2022-11-15T00:42:38;18.38;;;8.07;;
69244;SDS011;56357;52.304;4.870;2022-11-15T00:45:05;18.58;;;8.75;;
69244;SDS011;56357;52.304;4.870;2022-11-15T00:47:32;21.00;;;9.32;;
69244;SDS011;56357;52.304;4.870;2022-11-15T00:49:58;17.27;;;8.52;;
69244;SDS011;56357;52.304;4.870;2022-11-15T00:52:25;17.27;;;7.83;;
69244;SDS011;56357;52.304;4.870;2022-11-15T00:54:51;15.05;;;8.20;;
69244;SDS011;56357;52.304;4.870;2022-11-15T00:57:17;16.10;;;7.85;;
69244;SDS011;56357;52.304;4.870;2022-11-15T00:59:44;17.33;;;7.90;;
69244;SDS011;56357;52.304;4.870;2022-11-15T01:02:10;15.80;;;8.02;;
69244;SDS011;56357;52.304;4.870;2022-11-15T01:04:36;17.47;;;7.73;;
69244;SDS011;56357;52.304;4.870;2022-11-15T01:07:03;16.42;;;8.13;;
69244;SDS011;56357;52.304;4.870;2022-11-15T01:09:29;17.80;;;8.48;;
69244;SDS011;56357;52.304;4.870;2022-11-15T01:11:55;17.08;;;9.00;;
69244;SDS011;56357;52.304;4.870;2022-11-15T01:14:22;19.60;;;8.88;;
69244;SDS011;56357;52.304;4.870;2022-11-15T01:16:48;17.93;;;7.67;;
69244;SDS011;56357;52.304;4.870;2022-11-15T01:19:14;18.05;;;8.80;;
69244;SDS011;56357;52.304;4.870;2022-11-15T01:21:41;20.33;;;9.40;;
69244;SDS011;56357;52.304;4.870;2022-11-15T01:24:07;17.73;;;9.23;;
69244;SDS011;56357;52.304;4.870;2022-11-15T01:26:38;16.70;;;7.72;;
69244;SDS011;56357;52.304;4.870;2022-11-15T01:29:04;18.23;;;8.47;;
69244;SDS011;56357;52.304;4.870;2022-11-15T01:31:31;17.13;;;8.60;;
69244;SDS011;56357;52.304;4.870;2022-11-15T01:33:57;15.85;;;7.72;;
69244;SDS011;56357;52.304;4.870;2022-11-15T01:36:23;16.88;;;8.75;;
69244;SDS011;56357;52.304;4.870;2022-11-15T01:38:56;16.83;;;7.47;;
69244;SDS011;56357;52.304;4.870;2022-11-15T01:41:24;17.97;;;8.80;;
69244;SDS011;56357;52.304;4.870;2022-11-15T01:43:54;17.73;;;8.70;;
69244;SDS011;56357;52.304;4.870;2022-11-15T01:46:27;19.08;;;8.38;;
69244;SDS011;56357;52.304;4.870;2022-11-15T01:48:57;18.67;;;8.63;;
69244;SDS011;56357;52.304;4.870;2022-11-15T01:51:28;19.55;;;9.05;;
69244;SDS011;56357;52.304;4.870;2022-11-15T01:53:58;18.60;;;8.10;;
69244;SDS011;56357;52.304;4.870;2022-11-15T01:56:32;18.48;;;8.38;;
69244;SDS011;56357;52.304;4.870;2022-11-15T01:59:05;18.05;;;7.82;;
69244;SDS011;56357;52.304;4.870;2022-11-15T02:01:33;18.60;;;8.90;;
69244;SDS011;56357;52.304;4.870;2022-11-15T02:04:02;18.23;;;8.27;;
69244;SDS011;56357;52.304;4.870;2022-11-15T02:06:34;17.27;;;7.90;;
69244;SDS011;56357;52.304;4.870;2022-11-15T02:09:00;20.30;;;8.80;;
69244;SDS011;56357;52.304;4.870;2022-11-15T02:11:27;20.27;;;9.23;;
69244;SDS011;56357;52.304;4.870;2022-11-15T02:13:54;19.52;;;8.90;;
69244;SDS011;56357;52.304;4.870;2022-11-15T02:16:32;16.67;;;8.18;;
69244;SDS011;56357;52.304;4.870;2022-11-15T02:25:11;19.23;;;8.77;;
69244;SDS011;56357;52.304;4.870;2022-11-15T02:30:49;17.33;;;7.88;;
69244;SDS011;56357;52.304;4.870;2022-11-15T02:36:08;19.23;;;8.38;;
69244;SDS011;56357;52.304;4.870;2022-11-15T02:38:44;17.63;;;7.75;;
69244;SDS011;56357;52.304;4.870;2022-11-15T02:41:23;19.17;;;8.48;;
69244;SDS011;56357;52.304;4.870;2022-11-15T02:44:01;20.48;;;8.65;;
69244;SDS011;56357;52.304;4.870;2022-11-15T02:46:33;19.80;;;9.20;;
69244;SDS011;56357;52.304;4.870;2022-11-15T02:49:19;19.42;;;8.43;;
69244;SDS011;56357;52.304;4.870;2022-11-15T02:51:46;17.08;;;8.02;;
69244;SDS011;56357;52.304;4.870;2022-11-15T02:54:18;22.05;;;9.52;;
69244;SDS011;56357;52.304;4.870;2022-11-15T02:56:47;19.52;;;8.88;;
69244;SDS011;56357;52.304;4.870;2022-11-15T03:07:34;19.50;;;8.27;;
69244;SDS011;56357;52.304;4.870;2022-11-15T03:10:09;18.60;;;8.65;;
69244;SDS011;56357;52.304;4.870;2022-11-15T03:12:51;19.40;;;8.70;;
69244;SDS011;56357;52.304;4.870;2022-11-15T03:15:31;19.85;;;8.63;;
69244;SDS011;56357;52.304;4.870;2022-11-15T03:18:26;17.65;;;8.57;;
69244;SDS011;56357;52.304;4.870;2022-11-15T03:20:55;20.55;;;9.18;;
69244;SDS011;56357;52.304;4.870;2022-11-15T03:23:25;20.98;;;9.10;;
69244;SDS011;56357;52.304;4.870;2022-11-15T03:25:54;20.70;;;8.70;;
69244;SDS011;56357;52.304;4.870;2022-11-15T03:28:23;18.67;;;8.45;;
69244;SDS011;56357;52.304;4.870;2022-11-15T03:30:55;18.85;;;8.93;;
69244;SDS011;56357;52.304;4.870;2022-11-15T03:33:22;20.48;;;8.93;;
69244;SDS011;56357;52.304;4.870;2022-11-15T03:35:49;21.65;;;8.80;;
69244;SDS011;56357;52.304;4.870;2022-11-15T03:38:19;18.37;;;8.83;;
69244;SDS011;56357;52.304;4.870;2022-11-15T03:40:53;21.67;;;8.60;;
69244;SDS011;56357;52.304;4.870;2022-11-15T03:46:27;19.60;;;9.15;;
69244;SDS011;56357;52.304;4.870;2022-11-15T03:49:06;19.27;;;8.43;;
69244;SDS011;56357;52.304;4.870;2022-11-15T03:51:37;19.90;;;8.60;;
69244;SDS011;56357;52.304;4.870;2022-11-15T03:54:04;19.52;;;8.90;;
69244;SDS011;56357;52.304;4.870;2022-11-15T03:56:30;17.80;;;8.32;;
69244;SDS011;56357;52.304;4.870;2022-11-15T03:58:57;16.40;;;8.63;;
69244;SDS011;56357;52.304;4.870;2022-11-15T04:01:23;20.08;;;9.13;;
69244;SDS011;56357;52.304;4.870;2022-11-15T04:03:50;19.47;;;8.77;;
69244;SDS011;56357;52.304;4.870;2022-11-15T04:06:16;19.10;;;9.18;;
69244;SDS011;56357;52.304;4.870;2022-11-15T04:08:42;19.00;;;8.40;;
69244;SDS011;56357;52.304;4.870;2022-11-15T04:11:09;18.33;;;8.60;;
69244;SDS011;56357;52.304;4.870;2022-11-15T04:13:35;19.77;;;9.00;;
69244;SDS011;56357;52.304;4.870;2022-11-15T04:16:01;17.90;;;8.37;;
69244;SDS011;56357;52.304;4.870;2022-11-15T04:18:28;19.45;;;8.38;;
69244;SDS011;56357;52.304;4.870;2022-11-15T04:20:54;19.58;;;8.68;;
69244;SDS011;56357;52.304;4.870;2022-11-15T04:23:38;20.38;;;8.55;;
69244;SDS011;56357;52.304;4.870;2022-11-15T04:26:22;20.08;;;8.77;;
69244;SDS011;56357;52.304;4.870;2022-11-15T04:28:49;22.07;;;8.87;;
69244;SDS011;56357;52.304;4.870;2022-11-15T04:31:33;18.13;;;8.38;;
69244;SDS011;56357;52.304;4.870;2022-11-15T04:33:59;18.08;;;8.30;;
69244;SDS011;56357;52.304;4.870;2022-11-15T04:36:26;20.15;;;8.77;;
69244;SDS011;56357;52.304;4.870;2022-11-15T04:39:10;18.15;;;7.97;;
69244;SDS011;56357;52.304;4.870;2022-11-15T04:41:36;18.57;;;8.00;;
69244;SDS011;56357;52.304;4.870;2022-11-15T04:44:02;18.75;;;7.95;;
69244;SDS011;56357;52.304;4.870;2022-11-15T04:46:29;18.35;;;8.13;;
69244;SDS011;56357;52.304;4.870;2022-11-15T04:48:55;16.25;;;8.40;;
69244;SDS011;56357;52.304;4.870;2022-11-15T04:51:21;16.95;;;7.53;;
69244;SDS011;56357;52.304;4.870;2022-11-15T04:53:48;16.73;;;7.97;;
69244;SDS011;56357;52.304;4.870;2022-11-15T04:56:14;16.23;;;7.47;;
69244;SDS011;56357;52.304;4.870;2022-11-15T04:58:41;15.02;;;7.78;;
69244;SDS011;56357;52.304;4.870;2022-11-15T05:01:07;14.35;;;7.63;;
69244;SDS011;56357;52.304;4.870;2022-11-15T05:03:35;15.07;;;7.95;;
69244;SDS011;56357;52.304;4.870;2022-11-15T05:06:24;14.63;;;7.60;;
69244;SDS011;56357;52.304;4.870;2022-11-15T05:08:50;17.42;;;8.00;;
69244;SDS011;56357;52.304;4.870;2022-11-15T05:11:17;15.48;;;7.30;;
69244;SDS011;56357;52.304;4.870;2022-11-15T05:13:43;16.05;;;8.18;;
69244;SDS011;56357;52.304;4.870;2022-11-15T05:16:10;17.00;;;7.32;;
69244;SDS011;56357;52.304;4.870;2022-11-15T05:18:36;13.43;;;6.90;;
69244;SDS011;56357;52.304;4.870;2022-11-15T05:21:06;16.25;;;7.57;;
69244;SDS011;56357;52.304;4.870;2022-11-15T05:23:33;14.63;;;6.97;;
69244;SDS011;56357;52.304;4.870;2022-11-15T05:26:00;13.43;;;6.55;;
69244;SDS011;56357;52.304;4.870;2022-11-15T05:28:27;14.48;;;6.72;;
69244;SDS011;56357;52.304;4.870;2022-11-15T05:31:00;14.37;;;6.87;;
69244;SDS011;56357;52.304;4.870;2022-11-15T05:33:27;14.35;;;6.40;;
69244;SDS011;56357;52.304;4.870;2022-11-15T05:36:54;15.35;;;7.20;;
69244;SDS011;56357;52.304;4.870;2022-11-15T05:39:01;14.98;;;6.95;;
69244;SDS011;56357;52.304;4.870;2022-11-15T05:41:36;12.73;;;6.22;;
69244;SDS011;56357;52.304;4.870;2022-11-15T05:44:06;13.63;;;6.47;;
69244;SDS011;56357;52.304;4.870;2022-11-15T05:46:35;13.88;;;6.55;;
69244;SDS011;56357;52.304;4.870;2022-11-15T05:49:05;14.50;;;6.38;;
69244;SDS011;56357;52.304;4.870;2022-11-15T05:51:34;14.65;;;6.60;;
69244;SDS011;56357;52.304;4.870;2022-11-15T05:54:01;14.52;;;6.45;;
69244;SDS011;56357;52.304;4.870;2022-11-15T05:56:28;13.90;;;6.67;;
69244;SDS011;56357;52.304;4.870;2022-11-15T05:58:56;15.88;;;6.55;;
69244;SDS011;56357;52.304;4.870;2022-11-15T06:01:26;17.92;;;6.70;;
69244;SDS011;56357;52.304;4.870;2022-11-15T06:03:53;12.15;;;6.28;;
69244;SDS011;56357;52.304;4.870;2022-11-15T06:06:19;14.13;;;6.18;;
69244;SDS011;56357;52.304;4.870;2022-11-15T06:08:46;12.93;;;6.10;;
69244;SDS011;56357;52.304;4.870;2022-11-15T06:11:12;13.05;;;6.00;;
69244;SDS011;56357;52.304;4.870;2022-11-15T06:13:39;17.67;;;6.88;;
69244;SDS011;56357;52.304;4.870;2022-11-15T06:16:05;15.18;;;6.38;;
69244;SDS011;56357;52.304;4.870;2022-11-15T06:18:32;11.80;;;6.20;;
69244;SDS011;56357;52.304;4.870;2022-11-15T06:20:59;18.23;;;6.83;;
69244;SDS011;56357;52.304;4.870;2022-11-15T06:23:26;13.68;;;6.63;;
69244;SDS011;56357;52.304;4.870;2022-11-15T06:25:57;14.63;;;6.43;;
69244;SDS011;56357;52.304;4.870;2022-11-15T06:28:24;13.30;;;6.50;;
69244;SDS011;56357;52.304;4.870;2022-11-15T06:30:53;13.82;;;5.97;;
69244;SDS011;56357;52.304;4.870;2022-11-15T06:33:20;11.13;;;6.37;;
69244;SDS011;56357;52.304;4.870;2022-11-15T06:35:46;16.17;;;6.35;;
69244;SDS011;56357;52.304;4.870;2022-11-15T06:38:12;16.52;;;6.93;;
69244;SDS011;56357;52.304;4.870;2022-11-15T06:40:39;15.85;;;6.15;;
69244;SDS011;56357;52.304;4.870;2022-11-15T06:43:05;13.18;;;5.97;;
69244;SDS011;56357;52.304;4.870;2022-11-15T06:45:32;13.77;;;6.13;;
69244;SDS011;56357;52.304;4.870;2022-11-15T06:47:59;16.80;;;6.82;;
69244;SDS011;56357;52.304;4.870;2022-11-15T06:50:25;17.48;;;7.10;;
69244;SDS011;56357;52.304;4.870;2022-11-15T06:52:52;18.00;;;6.38;;
69244;SDS011;56357;52.304;4.870;2022-11-15T06:55:19;13.75;;;6.00;;
69244;SDS011;56357;52.304;4.870;2022-11-15T06:57:46;13.80;;;6.47;;
69244;SDS011;56357;52.304;4.870;2022-11-15T07:00:14;16.98;;;6.75;;
69244;SDS011;56357;52.304;4.870;2022-11-15T07:02:41;16.15;;;6.15;;
69244;SDS011;56357;52.304;4.870;2022-11-15T07:05:07;14.75;;;5.57;;
69244;SDS011;56357;52.304;4.870;2022-11-15T07:07:33;15.93;;;6.55;;
69244;SDS011;56357;52.304;4.870;2022-11-15T07:10:00;15.17;;;6.40;;
69244;SDS011;56357;52.304;4.870;2022-11-15T07:12:26;15.75;;;6.80;;
69244;SDS011;56357;52.304;4.870;2022-11-15T07:14:52;17.50;;;6.60;;
69244;SDS011;56357;52.304;4.870;2022-11-15T07:17:19;20.63;;;6.30;;
69244;SDS011;56357;52.304;4.870;2022-11-15T07:19:45;20.65;;;6.28;;
69244;SDS011;56357;52.304;4.870;2022-11-15T07:22:11;14.90;;;6.27;;
69244;SDS011;56357;52.304;4.870;2022-11-15T07:24:38;20.98;;;5.90;;
69244;SDS011;56357;52.304;4.870;2022-11-15T07:27:04;17.27;;;6.25;;
69244;SDS011;56357;52.304;4.870;2022-11-15T07:29:31;18.88;;;5.93;;
69244;SDS011;56357;52.304;4.870;2022-11-15T07:31:57;18.95;;;6.22;;
69244;SDS011;56357;52.304;4.870;2022-11-15T07:34:24;15.57;;;5.83;;
69244;SDS011;56357;52.304;4.870;2022-11-15T07:36:50;13.65;;;5.50;;
69244;SDS011;56357;52.304;4.870;2022-11-15T07:39:16;13.55;;;4.70;;
69244;SDS011;56357;52.304;4.870;2022-11-15T07:41:43;13.98;;;5.35;;
69244;SDS011;56357;52.304;4.870;2022-11-15T07:44:09;16.40;;;5.18;;
69244;SDS011;56357;52.304;4.870;2022-11-15T07:46:36;11.67;;;4.57;;
69244;SDS011;56357;52.304;4.870;2022-11-15T07:49:02;12.07;;;4.28;;
69244;SDS011;56357;52.304;4.870;2022-11-15T07:51:28;13.52;;;4.95;;
69244;SDS011;56357;52.304;4.870;2022-11-15T07:53:55;12.55;;;4.80;;
69244;SDS011;56357;52.304;4.870;2022-11-15T07:56:21;11.40;;;4.90;;
69244;SDS011;56357;52.304;4.870;2022-11-15T07:58:47;12.63;;;4.37;;
69244;SDS011;56357;52.304;4.870;2022-11-15T08:01:15;10.43;;;4.22;;
69244;SDS011;56357;52.304;4.870;2022-11-15T08:03:41;11.10;;;4.10;;
69244;SDS011;56357;52.304;4.870;2022-11-15T08:06:07;13.93;;;4.70;;
69244;SDS011;56357;52.304;4.870;2022-11-15T08:08:34;10.52;;;4.75;;
69244;SDS011;56357;52.304;4.870;2022-11-15T08:11:00;12.67;;;4.40;;
69244;SDS011;56357;52.304;4.870;2022-11-15T08:13:27;12.10;;;3.92;;
69244;SDS011;56357;52.304;4.870;2022-11-15T08:15:57;10.20;;;3.85;;
69244;SDS011;56357;52.304;4.870;2022-11-15T08:18:26;12.50;;;4.57;;
69244;SDS011;56357;52.304;4.870;2022-11-15T08:20:53;12.00;;;4.00;;
69244;SDS011;56357;52.304;4.870;2022-11-15T08:23:19;13.27;;;3.70;;
69244;SDS011;56357;52.304;4.870;2022-11-15T08:25:46;9.93;;;4.10;;
69244;SDS011;56357;52.304;4.870;2022-11-15T08:28:12;10.52;;;4.40;;
69244;SDS011;56357;52.304;4.870;2022-11-15T08:30:39;8.32;;;3.50;;
69244;SDS011;56357;52.304;4.870;2022-11-15T08:33:12;11.48;;;3.38;;
69244;SDS011;56357;52.304;4.870;2022-11-15T08:35:40;8.57;;;3.77;;
69244;SDS011;56357;52.304;4.870;2022-11-15T08:38:07;9.93;;;3.78;;
69244;SDS011;56357;52.304;4.870;2022-11-15T08:40:33;9.18;;;3.70;;
69244;SDS011;56357;52.304;4.870;2022-11-15T08:42:59;8.93;;;3.85;;
69244;SDS011;56357;52.304;4.870;2022-11-15T08:45:27;12.10;;;4.40;;
69244;SDS011;56357;52.304;4.870;2022-11-15T08:47:54;10.70;;;4.20;;
69244;SDS011;56357;52.304;4.870;2022-11-15T08:50:21;9.07;;;3.97;;
69244;SDS011;56357;52.304;4.870;2022-11-15T08:52:48;8.85;;;3.83;;
69244;SDS011;56357;52.304;4.870;2022-11-15T08:55:14;11.25;;;4.03;;
69244;SDS011;56357;52.304;4.870;2022-11-15T08:57:41;12.93;;;3.72;;
69244;SDS011;56357;52.304;4.870;2022-11-15T09:00:07;13.82;;;4.10;;
69244;SDS011;56357;52.304;4.870;2022-11-15T09:02:37;13.85;;;4.25;;
69244;SDS011;56357;52.304;4.870;2022-11-15T09:05:04;10.38;;;3.83;;
69244;SDS011;56357;52.304;4.870;2022-11-15T09:07:31;10.10;;;3.60;;
69244;SDS011;56357;52.304;4.870;2022-11-15T09:09:58;10.88;;;3.83;;
69244;SDS011;56357;52.304;4.870;2022-11-15T09:12:24;10.30;;;4.30;;
69244;SDS011;56357;52.304;4.870;2022-11-15T09:14:51;11.52;;;3.70;;
69244;SDS011;56357;52.304;4.870;2022-11-15T09:17:17;11.25;;;3.58;;
69244;SDS011;56357;52.304;4.870;2022-11-15T09:19:43;12.85;;;4.05;;
69244;SDS011;56357;52.304;4.870;2022-11-15T09:22:09;16.85;;;4.03;;
69244;SDS011;56357;52.304;4.870;2022-11-15T09:24:36;10.83;;;3.60;;
69244;SDS011;56357;52.304;4.870;2022-11-15T09:27:02;11.52;;;3.50;;
69244;SDS011;56357;52.304;4.870;2022-11-15T09:29:29;11.45;;;2.97;;
69244;SDS011;56357;52.304;4.870;2022-11-15T09:31:55;8.30;;;2.75;;
69244;SDS011;56357;52.304;4.870;2022-11-15T09:34:21;8.63;;;3.03;;
69244;SDS011;56357;52.304;4.870;2022-11-15T09:36:48;5.93;;;2.50;;
69244;SDS011;56357;52.304;4.870;2022-11-15T09:39:14;11.15;;;3.05;;
69244;SDS011;56357;52.304;4.870;2022-11-15T09:44:27;10.85;;;2.63;;
69244;SDS011;56357;52.304;4.870;2022-11-15T09:49:51;9.53;;;3.23;;
69244;SDS011;56357;52.304;4.870;2022-11-15T09:52:20;8.98;;;2.50;;
69244;SDS011;56357;52.304;4.870;2022-11-15T09:54:48;7.45;;;2.33;;
69244;SDS011;56357;52.304;4.870;2022-11-15T09:57:19;9.55;;;2.40;;
69244;SDS011;56357;52.304;4.870;2022-11-15T10:05:00;8.10;;;2.05;;
69244;SDS011;56357;52.304;4.870;2022-11-15T10:07:31;10.48;;;2.00;;
69244;SDS011;56357;52.304;4.870;2022-11-15T10:12:59;8.40;;;1.80;;
69244;SDS011;56357;52.304;4.870;2022-11-15T10:15:26;5.53;;;1.88;;
69244;SDS011;56357;52.304;4.870;2022-11-15T10:18:12;6.45;;;1.80;;
69244;SDS011;56357;52.304;4.870;2022-11-15T10:20:54;6.25;;;1.60;;
69244;SDS011;56357;52.304;4.870;2022-11-15T10:23:24;7.78;;;1.40;;
69244;SDS011;56357;52.304;4.870;2022-11-15T10:25:51;6.18;;;1.58;;
69244;SDS011;56357;52.304;4.870;2022-11-15T10:28:30;7.07;;;1.37;;
69244;SDS011;56357;52.304;4.870;2022-11-15T10:30:57;7.03;;;1.30;;
69244;SDS011;56357;52.304;4.870;2022-11-15T10:33:35;5.10;;;1.60;;
69244;SDS011;56357;52.304;4.870;2022-11-15T10:39:01;7.30;;;1.90;;
69244;SDS011;56357;52.304;4.870;2022-11-15T10:46:43;8.25;;;1.92;;
69244;SDS011;56357;52.304;4.870;2022-11-15T10:49:14;6.35;;;1.90;;
69244;SDS011;56357;52.304;4.870;2022-11-15T10:51:48;6.22;;;2.03;;
69244;SDS011;56357;52.304;4.870;2022-11-15T10:54:23;6.30;;;2.03;;
69244;SDS011;56357;52.304;4.870;2022-11-15T10:57:07;8.32;;;2.25;;
69244;SDS011;56357;52.304;4.870;2022-11-15T10:59:56;6.63;;;2.22;;
69244;SDS011;56357;52.304;4.870;2022-11-15T11:02:27;6.00;;;1.85;;
69244;SDS011;56357;52.304;4.870;2022-11-15T11:05:06;7.45;;;2.00;;
69244;SDS011;56357;52.304;4.870;2022-11-15T11:07:58;7.00;;;1.83;;
69244;SDS011;56357;52.304;4.870;2022-11-15T11:10:27;7.60;;;1.80;;
69244;SDS011;56357;52.304;4.870;2022-11-15T11:12:54;5.78;;;1.60;;
69244;SDS011;56357;52.304;4.870;2022-11-15T11:15:22;7.55;;;2.00;;
69244;SDS011;56357;52.304;4.870;2022-11-15T11:20:42;6.17;;;1.87;;
69244;SDS011;56357;52.304;4.870;2022-11-15T11:23:36;5.70;;;1.60;;
69244;SDS011;56357;52.304;4.870;2022-11-15T11:28:55;6.22;;;2.20;;
69244;SDS011;56357;52.304;4.870;2022-11-15T11:31:31;4.95;;;1.70;;
69244;SDS011;56357;52.304;4.870;2022-11-15T11:51:28;4.53;;;1.50;;
69244;SDS011;56357;52.304;4.870;2022-11-15T11:54:10;7.00;;;1.60;;
69244;SDS011;56357;52.304;4.870;2022-11-15T11:56:40;5.20;;;1.23;;
69244;SDS011;56357;52.304;4.870;2022-11-15T11:59:12;4.22;;;1.50;;
69244;SDS011;56357;52.304;4.870;2022-11-15T12:01:57;6.50;;;1.33;;
69244;SDS011;56357;52.304;4.870;2022-11-15T12:04:29;5.55;;;1.35;;
69244;SDS011;56357;52.304;4.870;2022-11-15T12:07:08;4.40;;;1.30;;
69244;SDS011;56357;52.304;4.870;2022-11-15T12:10:15;5.40;;;1.33;;
69244;SDS011;56357;52.304;4.870;2022-11-15T12:12:49;6.20;;;1.27;;
69244;SDS011;56357;52.304;4.870;2022-11-15T12:18:16;4.40;;;1.10;;
69244;SDS011;56357;52.304;4.870;2022-11-15T12:20:53;3.72;;;0.82;;
69244;SDS011;56357;52.304;4.870;2022-11-15T12:23:23;4.32;;;1.33;;
69244;SDS011;56357;52.304;4.870;2022-11-15T12:28:37;7.97;;;1.53;;
69244;SDS011;56357;52.304;4.870;2022-11-15T12:31:23;5.75;;;1.15;;
69244;SDS011;56357;52.304;4.870;2022-11-15T12:33:57;5.70;;;1.10;;
69244;SDS011;56357;52.304;4.870;2022-11-15T12:36:34;4.00;;;0.90;;
69244;SDS011;56357;52.304;4.870;2022-11-15T12:39:07;5.88;;;1.23;;
69244;SDS011;56357;52.304;4.870;2022-11-15T12:41:38;6.17;;;1.30;;
69244;SDS011;56357;52.304;4.870;2022-11-15T12:44:10;6.10;;;1.38;;
69244;SDS011;56357;52.304;4.870;2022-11-15T12:59:50;5.05;;;1.17;;
69244;SDS011;56357;52.304;4.870;2022-11-15T13:02:23;6.68;;;1.00;;
69244;SDS011;56357;52.304;4.870;2022-11-15T13:04:53;3.72;;;1.05;;
69244;SDS011;56357;52.304;4.870;2022-11-15T13:17:43;4.28;;;1.00;;
69244;SDS011;56357;52.304;4.870;2022-11-15T13:22:43;4.45;;;0.82;;
69244;SDS011;56357;52.304;4.870;2022-11-15T13:28:17;5.18;;;1.00;;
69244;SDS011;56357;52.304;4.870;2022-11-15T13:30:58;4.00;;;0.80;;
69244;SDS011;56357;52.304;4.870;2022-11-15T13:33:31;4.40;;;0.73;;
69244;SDS011;56357;52.304;4.870;2022-11-15T13:36:06;4.88;;;0.80;;
69244;SDS011;56357;52.304;4.870;2022-11-15T13:38:39;6.68;;;1.02;;
69244;SDS011;56357;52.304;4.870;2022-11-15T13:41:20;4.72;;;1.00;;
69244;SDS011;56357;52.304;4.870;2022-11-15T13:43:49;3.95;;;0.90;;
69244;SDS011;56357;52.304;4.870;2022-11-15T13:46:17;5.47;;;0.93;;
69244;SDS011;56357;52.304;4.870;2022-11-15T13:48:57;6.00;;;0.93;;
69244;SDS011;56357;52.304;4.870;2022-11-15T13:51:30;5.30;;;1.15;;
69244;SDS011;56357;52.304;4.870;2022-11-15T13:54:00;4.90;;;1.10;;
69244;SDS011;56357;52.304;4.870;2022-11-15T13:56:32;4.47;;;0.70;;
69244;SDS011;56357;52.304;4.870;2022-11-15T13:58:59;4.90;;;1.00;;
69244;SDS011;56357;52.304;4.870;2022-11-15T14:01:33;3.70;;;0.90;;
69244;SDS011;56357;52.304;4.870;2022-11-15T14:04:00;4.85;;;1.17;;
69244;SDS011;56357;52.304;4.870;2022-11-15T14:06:28;4.90;;;0.80;;
69244;SDS011;56357;52.304;4.870;2022-11-15T14:11:37;5.47;;;0.90;;
69244;SDS011;56357;52.304;4.870;2022-11-15T14:14:15;4.05;;;0.52;;
69244;SDS011;56357;52.304;4.870;2022-11-15T14:16:42;2.83;;;0.60;;
69244;SDS011;56357;52.304;4.870;2022-11-15T14:19:11;4.22;;;0.85;;
69244;SDS011;56357;52.304;4.870;2022-11-15T14:24:41;5.63;;;0.60;;
69244;SDS011;56357;52.304;4.870;2022-11-15T14:27:17;3.90;;;0.70;;
69244;SDS011;56357;52.304;4.870;2022-11-15T14:29:48;2.90;;;0.65;;
69244;SDS011;56357;52.304;4.870;2022-11-15T14:32:22;3.90;;;0.57;;
69244;SDS011;56357;52.304;4.870;2022-11-15T14:35:00;2.95;;;0.45;;
69244;SDS011;56357;52.304;4.870;2022-11-15T14:37:30;3.53;;;0.83;;
69244;SDS011;56357;52.304;4.870;2022-11-15T14:39:59;3.58;;;0.63;;
69244;SDS011;56357;52.304;4.870;2022-11-15T14:42:30;4.57;;;0.52;;
69244;SDS011;56357;52.304;4.870;2022-11-15T14:44:57;3.33;;;0.60;;
69244;SDS011;56357;52.304;4.870;2022-11-15T14:47:23;4.53;;;0.60;;
69244;SDS011;56357;52.304;4.870;2022-11-15T14:49:50;4.40;;;0.80;;
69244;SDS011;56357;52.304;4.870;2022-11-15T14:52:29;3.95;;;0.50;;
69244;SDS011;56357;52.304;4.870;2022-11-15T14:54:59;3.65;;;0.52;;
69244;SDS011;56357;52.304;4.870;2022-11-15T14:57:27;3.60;;;0.73;;
69244;SDS011;56357;52.304;4.870;2022-11-15T14:59:54;3.40;;;0.88;;
69244;SDS011;56357;52.304;4.870;2022-11-15T15:02:22;4.60;;;0.73;;
69244;SDS011;56357;52.304;4.870;2022-11-15T15:04:50;4.55;;;0.60;;
69244;SDS011;56357;52.304;4.870;2022-11-15T15:07:17;4.43;;;0.65;;
69244;SDS011;56357;52.304;4.870;2022-11-15T15:09:44;4.97;;;0.73;;
69244;SDS011;56357;52.304;4.870;2022-11-15T15:12:13;3.70;;;0.95;;
69244;SDS011;56357;52.304;4.870;2022-11-15T15:14:42;4.10;;;0.60;;
69244;SDS011;56357;52.304;4.870;2022-11-15T15:17:09;3.50;;;0.40;;
69244;SDS011;56357;52.304;4.870;2022-11-15T15:19:36;3.90;;;0.60;;
69244;SDS011;56357;52.304;4.870;2022-11-15T15:22:02;3.30;;;0.60;;
69244;SDS011;56357;52.304;4.870;2022-11-15T15:24:29;4.30;;;0.60;;
69244;SDS011;56357;52.304;4.870;2022-11-15T15:26:55;4.47;;;0.60;;
69244;SDS011;56357;52.304;4.870;2022-11-15T15:29:21;3.85;;;0.50;;
69244;SDS011;56357;52.304;4.870;2022-11-15T15:31:48;4.63;;;0.40;;
69244;SDS011;56357;52.304;4.870;2022-11-15T15:34:14;3.95;;;0.60;;
69244;SDS011;56357;52.304;4.870;2022-11-15T15:36:41;3.90;;;0.68;;
69244;SDS011;56357;52.304;4.870;2022-11-15T15:39:08;5.30;;;0.90;;
69244;SDS011;56357;52.304;4.870;2022-11-15T15:41:36;4.15;;;0.60;;
69244;SDS011;56357;52.304;4.870;2022-11-15T15:44:02;4.40;;;0.68;;
69244;SDS011;56357;52.304;4.870;2022-11-15T15:46:28;4.28;;;0.80;;
69244;SDS011;56357;52.304;4.870;2022-11-15T15:48:55;5.75;;;0.60;;
69244;SDS011;56357;52.304;4.870;2022-11-15T15:51:21;3.77;;;0.60;;
69244;SDS011;56357;52.304;4.870;2022-11-15T15:53:47;4.55;;;0.50;;
69244;SDS011;56357;52.304;4.870;2022-11-15T15:56:15;2.60;;;0.50;;
69244;SDS011;56357;52.304;4.870;2022-11-15T15:58:42;4.38;;;0.40;;
69244;SDS011;56357;52.304;4.870;2022-11-15T16:01:08;4.68;;;0.80;;
69244;SDS011;56357;52.304;4.870;2022-11-15T16:03:34;4.23;;;0.50;;
69244;SDS011;56357;52.304;4.870;2022-11-15T16:06:01;10.68;;;1.13;;
69244;SDS011;56357;52.304;4.870;2022-11-15T16:08:29;5.13;;;0.70;;
69244;SDS011;56357;52.304;4.870;2022-11-15T16:10:55;7.10;;;1.02;;
69244;SDS011;56357;52.304;4.870;2022-11-15T16:13:22;9.18;;;1.05;;
69244;SDS011;56357;52.304;4.870;2022-11-15T16:15:49;3.90;;;0.50;;
69244;SDS011;56357;52.304;4.870;2022-11-15T16:18:19;5.45;;;0.80;;
69244;SDS011;56357;52.304;4.870;2022-11-15T16:20:46;7.68;;;1.10;;
69244;SDS011;56357;52.304;4.870;2022-11-15T16:23:17;8.82;;;0.70;;
69244;SDS011;56357;52.304;4.870;2022-11-15T16:28:25;9.13;;;1.00;;
69244;SDS011;56357;52.304;4.870;2022-11-15T16:31:03;5.43;;;0.60;;
69244;SDS011;56357;52.304;4.870;2022-11-15T16:33:29;6.25;;;0.80;;
69244;SDS011;56357;52.304;4.870;2022-11-15T16:35:56;6.85;;;0.90;;
69244;SDS011;56357;52.304;4.870;2022-11-15T16:38:23;6.82;;;0.63;;
69244;SDS011;56357;52.304;4.870;2022-11-15T16:40:49;7.07;;;1.00;;
69244;SDS011;56357;52.304;4.870;2022-11-15T16:43:16;7.30;;;0.57;;
69244;SDS011;56357;52.304;4.870;2022-11-15T16:45:42;9.95;;;1.05;;